createdAt,value
2023-05-19T00:02:39.694Z,10.90
2023-05-19T00:07:45.791Z,10.90
2023-05-19T00:12:51.891Z,10.80
2023-05-19T00:17:57.253Z,10.70
2023-05-19T00:23:02.295Z,10.60
2023-05-19T00:28:06.006Z,10.50
2023-05-19T00:33:09.510Z,10.40
2023-05-19T00:38:14.333Z,10.20
2023-05-19T00:43:17.778Z,10.20
2023-05-19T00:48:21.831Z,7.10
2023-05-19T00:53:26.654Z,10.10
2023-05-19T00:58:32.826Z,6.20
2023-05-19T01:03:37.380Z,10.00
2023-05-19T01:08:42.245Z,10.00
2023-05-19T01:13:46.584Z,10.00
2023-05-19T01:19:01.837Z,10.10
2023-05-19T01:24:23.394Z,10.20
2023-05-19T01:29:44.298Z,10.40
2023-05-19T01:34:52.116Z,10.50
2023-05-19T01:39:56.534Z,10.60
2023-05-19T01:45:01.349Z,10.70
2023-05-19T01:50:06.687Z,10.70
2023-05-19T01:55:11.023Z,10.70
2023-05-19T02:00:23.538Z,10.70
2023-05-19T02:05:37.472Z,10.60
2023-05-19T02:10:43.719Z,10.50
2023-05-19T02:15:48.021Z,10.60
2023-05-19T02:20:52.892Z,10.60
2023-05-19T02:25:56.444Z,10.70
2023-05-19T02:30:59.948Z,10.70
2023-05-19T02:36:07.599Z,10.70
2023-05-19T02:41:10.974Z,10.70
2023-05-19T02:46:14.481Z,10.70
2023-05-19T02:51:19.242Z,10.60
2023-05-19T02:56:22.810Z,10.60
2023-05-19T03:01:26.737Z,10.50
2023-05-19T03:06:32.968Z,10.50
2023-05-19T03:11:36.496Z,10.60
2023-05-19T03:16:41.477Z,10.60
2023-05-19T03:21:47.368Z,10.70
2023-05-19T03:26:50.827Z,10.60
2023-05-19T03:31:54.811Z,10.50
2023-05-19T03:37:00.071Z,10.50
2023-05-19T03:42:03.610Z,10.60
2023-05-19T03:47:07.719Z,10.70
2023-05-19T03:52:31.190Z,10.70
2023-05-19T03:57:43.476Z,10.80
2023-05-19T04:02:47.393Z,10.80
2023-05-19T04:07:52.231Z,10.80
2023-05-19T04:12:55.817Z,10.90
2023-05-19T04:17:59.295Z,15.30
2023-05-19T04:23:04.033Z,8.30
2023-05-19T04:28:07.783Z,11.10
2023-05-19T04:33:11.784Z,11.10
2023-05-19T04:38:19.085Z,11.20
2023-05-19T04:43:24.822Z,11.20
2023-05-19T04:48:31.049Z,11.30
2023-05-19T04:53:36.762Z,11.20
2023-05-19T04:58:44.941Z,11.50
2023-05-19T05:03:48.738Z,11.70
2023-05-19T05:08:54.285Z,12.00
2023-05-19T05:13:59.039Z,12.00
2023-05-19T05:19:06.091Z,12.10
2023-05-19T05:24:12.796Z,12.30
2023-05-19T05:29:21.204Z,12.50
2023-05-19T05:34:24.649Z,12.60
2023-05-19T05:39:29.384Z,12.70
2023-05-19T05:44:34.364Z,12.80
2023-05-19T05:49:40.330Z,12.70
2023-05-19T05:54:46.392Z,12.80
2023-05-19T05:59:52.427Z,13.00
2023-05-19T06:04:55.916Z,13.20
2023-05-19T06:10:00.690Z,13.20
2023-05-19T06:15:04.646Z,13.60
2023-05-19T06:20:37.533Z,13.80
2023-05-19T06:25:43.061Z,13.90
2023-05-19T06:30:46.820Z,14.30
2023-05-19T06:36:19.018Z,14.90
2023-05-19T06:41:25.056Z,15.90
2023-05-19T06:46:29.055Z,16.90
2023-05-19T06:51:33.278Z,16.90
2023-05-19T06:56:38.144Z,16.70
2023-05-19T07:01:41.616Z,16.90
2023-05-19T07:06:45.153Z,17.40
2023-05-19T07:11:50.213Z,17.40
2023-05-19T07:16:53.859Z,18.70
2023-05-19T07:21:59.466Z,18.80
2023-05-19T07:27:04.605Z,17.90
2023-05-19T07:32:09.525Z,17.00
2023-05-19T07:37:13.826Z,16.30
2023-05-19T07:42:18.891Z,16.10
2023-05-19T07:47:22.750Z,15.90
2023-05-19T07:52:26.410Z,16.20
2023-05-19T07:57:32.521Z,15.80
2023-05-19T08:02:38.551Z,16.50
2023-05-19T08:07:42.597Z,17.00
2023-05-19T08:12:47.842Z,17.00
2023-05-19T08:17:51.764Z,17.10
2023-05-19T08:22:55.575Z,16.30
2023-05-19T08:28:00.574Z,15.70
2023-05-19T08:33:04.487Z,16.20
2023-05-19T08:38:08.064Z,16.40
2023-05-19T08:43:13.721Z,16.60
2023-05-19T08:48:19.944Z,16.30
2023-05-19T08:53:33.954Z,16.90
2023-05-19T08:58:41.699Z,17.90
2023-05-19T09:03:47.701Z,20.90
2023-05-19T09:08:51.430Z,18.00
2023-05-19T09:13:56.166Z,19.40
2023-05-19T09:19:01.330Z,20.10
2023-05-19T09:24:09.318Z,20.70
2023-05-19T09:29:14.873Z,18.30
2023-05-19T09:34:18.631Z,19.10
2023-05-19T09:39:25.277Z,19.00
2023-05-19T09:44:30.702Z,20.20
2023-05-19T09:49:38.067Z,20.70
2023-05-19T09:54:43.328Z,21.20
2023-05-19T09:59:48.762Z,22.40
2023-05-19T10:04:53.498Z,21.70
2023-05-19T10:10:01.496Z,21.30
2023-05-19T10:15:09.394Z,20.70
2023-05-19T10:20:14.275Z,21.40
2023-05-19T10:25:20.124Z,18.90
2023-05-19T10:30:29.750Z,18.20
2023-05-19T10:35:57.784Z,19.70
2023-05-19T10:41:08.320Z,21.50
2023-05-19T10:46:13.804Z,22.00
2023-05-19T10:51:17.308Z,20.50
2023-05-19T10:56:33.185Z,20.90
2023-05-19T11:01:39.584Z,21.20
2023-05-19T11:06:51.994Z,21.80
2023-05-19T11:11:56.991Z,21.00
2023-05-19T11:17:02.074Z,20.60
2023-05-19T11:22:12.979Z,24.50
2023-05-19T11:27:27.509Z,25.40
2023-05-19T11:32:34.794Z,23.40
2023-05-19T11:37:40.508Z,23.50
2023-05-19T11:42:44.983Z,23.30
2023-05-19T11:48:01.296Z,23.00
2023-05-19T11:53:06.539Z,25.10
2023-05-19T11:58:11.249Z,21.90
2023-05-19T12:03:17.643Z,23.80
2023-05-19T12:08:21.774Z,25.10
2023-05-19T12:13:25.253Z,24.30
2023-05-19T12:18:32.750Z,23.60
2023-05-19T12:23:36.708Z,24.70
2023-05-19T12:28:40.263Z,25.50
2023-05-19T12:33:45.280Z,27.30
2023-05-19T12:38:49.047Z,27.20
2023-05-19T12:43:52.400Z,27.00
2023-05-19T12:49:00.824Z,27.10
2023-05-19T12:54:04.590Z,27.50
2023-05-19T12:59:08.224Z,26.80
2023-05-19T13:04:13.168Z,26.00
2023-05-19T13:09:17.517Z,27.00
2023-05-19T13:14:20.998Z,26.80
2023-05-19T13:19:26.156Z,26.20
2023-05-19T13:24:29.792Z,25.10
2023-05-19T13:29:33.111Z,24.30
2023-05-19T13:34:37.869Z,22.70
2023-05-19T13:39:41.342Z,22.30
2023-05-19T13:44:44.712Z,21.80
2023-05-19T13:49:49.433Z,21.30
2023-05-19T13:54:54.596Z,21.40
2023-05-19T14:00:03.202Z,21.50
2023-05-19T14:05:18.032Z,22.00
2023-05-19T14:10:21.584Z,21.80
2023-05-19T14:15:24.996Z,22.30
2023-05-19T14:20:29.952Z,22.40
2023-05-19T14:25:33.301Z,22.20
2023-05-19T14:30:36.854Z,22.30
2023-05-19T14:35:42.036Z,22.30
2023-05-19T14:40:46.107Z,22.60
2023-05-19T14:45:49.789Z,26.40
2023-05-19T14:50:54.496Z,21.60
2023-05-19T14:55:57.816Z,21.40
2023-05-19T15:01:01.171Z,21.60
2023-05-19T15:06:10.547Z,21.80
2023-05-19T15:11:13.831Z,21.80
2023-05-19T15:16:18.447Z,21.70
2023-05-19T15:21:23.411Z,21.60
2023-05-19T15:26:29.113Z,21.40
2023-05-19T15:31:34.409Z,21.00
2023-05-19T15:36:40.859Z,20.70
2023-05-19T15:41:44.841Z,20.30
2023-05-19T15:46:48.537Z,20.20
2023-05-19T15:51:53.330Z,20.60
2023-05-19T15:56:56.688Z,20.90
2023-05-19T16:02:00.192Z,20.90
2023-05-19T16:07:06.348Z,21.00
2023-05-19T16:12:10.010Z,20.80
2023-05-19T16:17:13.911Z,20.60
2023-05-19T16:22:19.247Z,20.60
2023-05-19T16:27:22.872Z,20.70
2023-05-19T16:32:26.425Z,20.60
2023-05-19T16:37:31.824Z,20.50
2023-05-19T16:42:35.295Z,20.40
2023-05-19T16:47:38.706Z,20.30
2023-05-19T16:52:43.484Z,20.20
2023-05-19T16:57:46.844Z,20.00
2023-05-19T17:02:50.252Z,19.60
2023-05-19T17:07:55.040Z,19.50
2023-05-19T17:12:58.493Z,19.40
2023-05-19T17:18:01.947Z,19.20
2023-05-19T17:23:07.055Z,19.20
2023-05-19T17:28:10.435Z,19.10
2023-05-19T17:33:13.848Z,18.90
2023-05-19T17:38:18.707Z,18.70
2023-05-19T17:43:22.158Z,18.30
2023-05-19T17:48:26.045Z,18.20
2023-05-19T17:53:31.645Z,18.10
2023-05-19T17:58:36.165Z,17.90
2023-05-19T18:03:40.062Z,17.60
2023-05-19T18:08:47.078Z,17.40
2023-05-19T18:13:50.437Z,17.30
2023-05-19T18:18:53.785Z,17.20
2023-05-19T18:24:00.604Z,16.90
2023-05-19T18:29:05.228Z,16.90
2023-05-19T18:34:08.664Z,16.80
2023-05-19T18:39:13.523Z,16.60
2023-05-19T18:44:16.900Z,16.50
2023-05-19T18:49:20.261Z,16.50
2023-05-19T18:54:25.055Z,16.30
2023-05-19T18:59:28.403Z,14.20
2023-05-19T19:04:31.989Z,16.10
2023-05-19T19:09:37.073Z,16.10
2023-05-19T19:14:40.409Z,16.00
2023-05-19T19:19:43.961Z,16.00
2023-05-19T19:24:48.787Z,15.90
2023-05-19T19:29:52.660Z,15.90
2023-05-19T19:34:56.437Z,15.80
2023-05-19T19:40:01.241Z,15.70
2023-05-19T19:45:04.799Z,15.70
2023-05-19T19:50:09.471Z,15.60
2023-05-19T19:55:14.518Z,15.50
2023-05-19T20:00:18.638Z,15.60
2023-05-19T20:05:22.403Z,15.40
2023-05-19T20:10:27.257Z,15.40
2023-05-19T20:15:31.357Z,15.40
2023-05-19T20:20:35.131Z,15.30
2023-05-19T20:25:58.460Z,15.20
2023-05-19T20:31:06.995Z,15.10
2023-05-19T20:36:11.067Z,15.00
2023-05-19T20:41:16.586Z,14.90
2023-05-19T20:46:20.082Z,14.90
2023-05-19T20:51:25.277Z,14.90
2023-05-19T20:56:30.154Z,14.80
2023-05-19T21:01:33.557Z,14.70
2023-05-19T21:06:36.872Z,14.60
2023-05-19T21:11:44.624Z,14.40
2023-05-19T21:16:49.581Z,14.40
2023-05-19T21:21:54.199Z,14.30
2023-05-19T21:27:06.827Z,14.20
2023-05-19T21:32:10.801Z,14.00
2023-05-19T21:37:14.238Z,14.10
2023-05-19T21:42:18.941Z,13.70
2023-05-19T21:47:22.548Z,13.90
2023-05-19T21:52:26.127Z,14.00
2023-05-19T21:57:31.309Z,14.00
2023-05-19T22:02:34.864Z,14.10
2023-05-19T22:07:38.586Z,14.10
2023-05-19T22:12:44.156Z,14.10
2023-05-19T22:17:48.703Z,14.10
2023-05-19T22:22:52.480Z,14.10
2023-05-19T22:27:57.625Z,14.00
2023-05-19T22:33:01.194Z,13.90
2023-05-19T22:38:04.630Z,13.80
2023-05-19T22:43:12.671Z,13.70
2023-05-19T22:48:20.471Z,11.70
2023-05-19T22:53:24.993Z,13.50
2023-05-19T22:58:29.973Z,13.50
2023-05-19T23:03:34.688Z,13.40
2023-05-19T23:08:40.242Z,13.30
2023-05-19T23:13:45.061Z,13.30
2023-05-19T23:18:48.566Z,13.30
2023-05-19T23:23:52.301Z,13.20
2023-05-19T23:34:02.081Z,13.20
2023-05-19T23:39:05.587Z,13.20
2023-05-19T23:44:11.128Z,17.50
2023-05-19T23:49:14.647Z,13.10
2023-05-19T23:54:17.996Z,13.10
2023-05-19T23:59:22.862Z,13.10
